Aérodrome :
LOGIN :

S'inscrire | Disclaimer

   EN    FR    IT 

 










Légende :    VFR   VFR Marginal   IFR   IFR Intensif   IFR Très Intensif
Visi : 
Plafond : 
>= 8 km
>= 3000ft
5 à 8 km
1000 à 3000 ft
1500m à 5 km
500 à 1000 ft
800 à 1500m
200 à 500 ft
< 800m
< 200 ft
Symboles :   Orages  Brouillard  Fortes neiges  Fortes précipitations  Vent > 20 kt
SIGMETs :   Divers  Orages  Givrage  Turbulence  Onde Orograph.  Cendres Volcan.







- Altitude de l'aérodrome : 359 ft
- Code IATA : BVA
- Voir les cartes d'approche


LFOB - Beauvais

DERNIER METAR :
  • 241100Z AUTO 30005KT 240V340 CAVOK 20/10 Q1017 NOSIG

METARs EXPIRÉS :
  • 241030Z AUTO 29004KT 240V010 CAVOK 20/10 Q1017 NOSIG
  • 241000Z AUTO VRB03KT CAVOK 20/10 Q1017 NOSIG
  • 240930Z AUTO 32004KT 230V030 CAVOK 19/08 Q1017 NOSIG
  • 240900Z AUTO 32004KT 280V020 CAVOK 18/09 Q1017 NOSIG
  • 240830Z AUTO 30004KT 260V360 CAVOK 17/08 Q1017 NOSIG

TAF TAF LFOB
Valide du 24 à 06h jusqu'au 25 à 06h UTC


240500Z 2406/2506 VRB02KT CAVOK
PROB30
TEMPO 2413/2420 4000 SHRA BKN050CB
BECMG 2413/2415 31010KT
ATIS : +33 3 44 11 49 28
Pas de NOTAMs connus pour ce terrain.



MET'MAP, la Météo Aéronautique d'un coup d'oeil ! - Copyright ORBIFLY Décembre 2007 - Disclaimer

ORBIFLY MET'MAP TEAM :

Programmation & Développement : Alexandra Zaïnal
Conception & Développement : Baudouin d'Aumeries
Co-Programmation & Développement : Marc-Olivier Méhu
Soutien technique & logistique : Manuel Goepfert

Contact : metmap@orbifly.com




SOURCES & CREDITS :

   NOAA